LIRA/CIA METAR and TAF weather

Enter ICAO airport designator
Station Type Date Time Source
LIRA METAR 2019/04/25 17:50 UTC NOAA

LIRA 251750Z 30003KT CAVOK 23/08 Q1016


Station Type Date Time Source
LIRA Decoded METAR 2019/04/25 17:50 UTC NOAA

Roma / Ciampino, Italy (LIRA) 41-47N 012-35E 105M
Apr 25, 2019 - 01:50 PM EDT / 2019.04.25 1750 UTC
Wind: from the WNW (300 degrees) at 3 MPH (3 KT):0
Visibility: greater than 7 mile(s):0
Temperature: 73 F (23 C)
Dew Point: 46 F (8 C)
Relative Humidity: 38%
Pressure (altimeter): 30.00 in. Hg (1016 hPa)
ob: LIRA 251750Z 30003KT CAVOK 23/08 Q1016
cycle: 18

Station Type Date Time Source
LIRA TAF 2019/04/25 18:21 UTC NOAA

TAF LIRA 251700Z 2518/2618 VRB04KT CAVOK
BECMG 2607/2609 22012KT
BECMG 2610/2612 RA

Example: see airport list